sensor_id;sensor_type;location;lat;lon;timestamp;P1;durP1;ratioP1;P2;durP2;ratioP2
20623;SDS011;10471;42.736;23.346;2024-02-26T00:01:25;68.60;;;38.20;;
20623;SDS011;10471;42.736;23.346;2024-02-26T00:03:50;64.07;;;38.73;;
20623;SDS011;10471;42.736;23.346;2024-02-26T00:06:17;55.87;;;35.20;;
20623;SDS011;10471;42.736;23.346;2024-02-26T00:08:43;64.23;;;37.23;;
20623;SDS011;10471;42.736;23.346;2024-02-26T00:11:08;62.30;;;37.87;;
20623;SDS011;10471;42.736;23.346;2024-02-26T00:13:34;68.20;;;38.60;;
20623;SDS011;10471;42.736;23.346;2024-02-26T00:15:59;65.53;;;39.27;;
20623;SDS011;10471;42.736;23.346;2024-02-26T00:18:24;64.47;;;36.40;;
20623;SDS011;10471;42.736;23.346;2024-02-26T00:20:50;61.43;;;36.43;;
20623;SDS011;10471;42.736;23.346;2024-02-26T00:23:15;66.63;;;40.23;;
20623;SDS011;10471;42.736;23.346;2024-02-26T00:25:41;61.43;;;37.80;;
20623;SDS011;10471;42.736;23.346;2024-02-26T00:28:08;71.20;;;40.60;;
20623;SDS011;10471;42.736;23.346;2024-02-26T00:30:34;70.00;;;39.03;;
20623;SDS011;10471;42.736;23.346;2024-02-26T00:32:59;63.80;;;38.43;;
20623;SDS011;10471;42.736;23.346;2024-02-26T00:35:25;70.90;;;39.80;;
20623;SDS011;10471;42.736;23.346;2024-02-26T00:37:50;67.33;;;40.30;;
20623;SDS011;10471;42.736;23.346;2024-02-26T00:40:15;74.87;;;41.93;;
20623;SDS011;10471;42.736;23.346;2024-02-26T00:42:41;70.17;;;39.50;;
20623;SDS011;10471;42.736;23.346;2024-02-26T00:45:10;64.43;;;37.80;;
20623;SDS011;10471;42.736;23.346;2024-02-26T00:47:39;69.20;;;39.43;;
20623;SDS011;10471;42.736;23.346;2024-02-26T00:50:06;65.20;;;38.23;;
20623;SDS011;10471;42.736;23.346;2024-02-26T00:52:33;64.43;;;39.03;;
20623;SDS011;10471;42.736;23.346;2024-02-26T00:54:58;65.60;;;39.20;;
20623;SDS011;10471;42.736;23.346;2024-02-26T00:57:24;73.77;;;42.93;;
20623;SDS011;10471;42.736;23.346;2024-02-26T00:59:49;80.47;;;48.30;;
20623;SDS011;10471;42.736;23.346;2024-02-26T01:02:15;59.93;;;36.47;;
20623;SDS011;10471;42.736;23.346;2024-02-26T01:04:41;59.33;;;36.50;;
20623;SDS011;10471;42.736;23.346;2024-02-26T01:07:06;58.70;;;36.33;;
20623;SDS011;10471;42.736;23.346;2024-02-26T01:09:31;62.70;;;37.27;;
20623;SDS011;10471;42.736;23.346;2024-02-26T01:11:57;58.70;;;35.97;;
20623;SDS011;10471;42.736;23.346;2024-02-26T01:14:22;61.37;;;34.50;;
20623;SDS011;10471;42.736;23.346;2024-02-26T01:16:48;58.50;;;33.53;;
20623;SDS011;10471;42.736;23.346;2024-02-26T01:19:13;55.03;;;33.37;;
20623;SDS011;10471;42.736;23.346;2024-02-26T01:21:39;56.50;;;32.17;;
20623;SDS011;10471;42.736;23.346;2024-02-26T01:24:04;51.73;;;31.70;;
20623;SDS011;10471;42.736;23.346;2024-02-26T01:26:30;56.83;;;35.07;;
20623;SDS011;10471;42.736;23.346;2024-02-26T01:28:56;62.63;;;38.23;;
20623;SDS011;10471;42.736;23.346;2024-02-26T01:31:21;67.13;;;36.90;;
20623;SDS011;10471;42.736;23.346;2024-02-26T01:33:46;60.10;;;37.17;;
20623;SDS011;10471;42.736;23.346;2024-02-26T01:36:12;56.50;;;34.63;;
20623;SDS011;10471;42.736;23.346;2024-02-26T01:38:37;58.80;;;35.27;;
20623;SDS011;10471;42.736;23.346;2024-02-26T01:41:03;62.63;;;36.53;;
20623;SDS011;10471;42.736;23.346;2024-02-26T01:43:28;58.40;;;34.77;;
20623;SDS011;10471;42.736;23.346;2024-02-26T01:45:54;56.73;;;32.93;;
20623;SDS011;10471;42.736;23.346;2024-02-26T01:48:20;55.47;;;32.37;;
20623;SDS011;10471;42.736;23.346;2024-02-26T01:50:45;50.03;;;31.20;;
20623;SDS011;10471;42.736;23.346;2024-02-26T01:53:11;57.63;;;31.90;;
20623;SDS011;10471;42.736;23.346;2024-02-26T01:55:37;53.80;;;31.73;;
20623;SDS011;10471;42.736;23.346;2024-02-26T01:58:03;55.47;;;32.23;;
20623;SDS011;10471;42.736;23.346;2024-02-26T02:00:30;47.67;;;30.37;;
20623;SDS011;10471;42.736;23.346;2024-02-26T02:02:56;57.70;;;31.83;;
20623;SDS011;10471;42.736;23.346;2024-02-26T02:05:21;53.57;;;32.53;;
20623;SDS011;10471;42.736;23.346;2024-02-26T02:07:47;53.80;;;32.23;;
20623;SDS011;10471;42.736;23.346;2024-02-26T02:10:14;52.90;;;32.77;;
20623;SDS011;10471;42.736;23.346;2024-02-26T02:12:40;53.20;;;33.47;;
20623;SDS011;10471;42.736;23.346;2024-02-26T02:15:06;58.23;;;34.43;;
20623;SDS011;10471;42.736;23.346;2024-02-26T02:17:32;57.70;;;31.97;;
20623;SDS011;10471;42.736;23.346;2024-02-26T02:19:58;56.20;;;34.27;;
20623;SDS011;10471;42.736;23.346;2024-02-26T02:22:23;63.23;;;38.00;;
20623;SDS011;10471;42.736;23.346;2024-02-26T02:24:49;60.03;;;36.63;;
20623;SDS011;10471;42.736;23.346;2024-02-26T02:27:15;52.43;;;31.83;;
20623;SDS011;10471;42.736;23.346;2024-02-26T02:29:41;58.07;;;32.17;;
20623;SDS011;10471;42.736;23.346;2024-02-26T02:32:07;51.43;;;33.07;;
20623;SDS011;10471;42.736;23.346;2024-02-26T02:34:33;157.00;;;86.07;;
20623;SDS011;10471;42.736;23.346;2024-02-26T02:36:59;57.07;;;34.60;;
20623;SDS011;10471;42.736;23.346;2024-02-26T02:39:24;101.03;;;55.80;;
20623;SDS011;10471;42.736;23.346;2024-02-26T02:41:50;70.83;;;41.33;;
20623;SDS011;10471;42.736;23.346;2024-02-26T02:44:15;54.00;;;34.20;;
20623;SDS011;10471;42.736;23.346;2024-02-26T02:46:41;48.33;;;30.63;;
20623;SDS011;10471;42.736;23.346;2024-02-26T02:49:09;52.80;;;32.70;;
20623;SDS011;10471;42.736;23.346;2024-02-26T02:51:35;51.60;;;32.23;;
20623;SDS011;10471;42.736;23.346;2024-02-26T02:54:01;48.43;;;31.33;;
20623;SDS011;10471;42.736;23.346;2024-02-26T02:56:26;46.67;;;28.23;;
20623;SDS011;10471;42.736;23.346;2024-02-26T02:58:52;45.97;;;28.07;;
20623;SDS011;10471;42.736;23.346;2024-02-26T03:01:18;46.53;;;29.00;;
20623;SDS011;10471;42.736;23.346;2024-02-26T03:03:43;85.37;;;48.47;;
20623;SDS011;10471;42.736;23.346;2024-02-26T03:06:09;64.63;;;39.43;;
20623;SDS011;10471;42.736;23.346;2024-02-26T03:08:34;60.90;;;37.57;;
20623;SDS011;10471;42.736;23.346;2024-02-26T03:11:03;53.47;;;33.37;;
20623;SDS011;10471;42.736;23.346;2024-02-26T03:13:29;58.90;;;36.67;;
20623;SDS011;10471;42.736;23.346;2024-02-26T03:15:54;64.27;;;39.37;;
20623;SDS011;10471;42.736;23.346;2024-02-26T03:18:19;55.93;;;35.47;;
20623;SDS011;10471;42.736;23.346;2024-02-26T03:20:45;60.77;;;35.80;;
20623;SDS011;10471;42.736;23.346;2024-02-26T03:23:10;55.87;;;34.13;;
20623;SDS011;10471;42.736;23.346;2024-02-26T03:25:37;62.37;;;36.30;;
20623;SDS011;10471;42.736;23.346;2024-02-26T03:28:03;60.07;;;36.63;;
20623;SDS011;10471;42.736;23.346;2024-02-26T03:30:29;57.07;;;34.57;;
20623;SDS011;10471;42.736;23.346;2024-02-26T03:32:54;56.43;;;35.33;;
20623;SDS011;10471;42.736;23.346;2024-02-26T03:35:20;55.13;;;34.00;;
20623;SDS011;10471;42.736;23.346;2024-02-26T03:37:48;55.37;;;35.20;;
20623;SDS011;10471;42.736;23.346;2024-02-26T03:40:15;64.23;;;38.13;;
20623;SDS011;10471;42.736;23.346;2024-02-26T03:42:40;46.23;;;29.67;;
20623;SDS011;10471;42.736;23.346;2024-02-26T03:45:06;49.17;;;29.50;;
20623;SDS011;10471;42.736;23.346;2024-02-26T03:47:32;47.57;;;30.43;;
20623;SDS011;10471;42.736;23.346;2024-02-26T03:49:57;49.83;;;31.37;;
20623;SDS011;10471;42.736;23.346;2024-02-26T03:52:24;47.40;;;31.10;;
20623;SDS011;10471;42.736;23.346;2024-02-26T03:54:49;46.57;;;28.80;;
20623;SDS011;10471;42.736;23.346;2024-02-26T03:57:15;46.93;;;29.83;;
20623;SDS011;10471;42.736;23.346;2024-02-26T03:59:40;56.63;;;33.40;;
20623;SDS011;10471;42.736;23.346;2024-02-26T04:02:05;42.07;;;27.87;;
20623;SDS011;10471;42.736;23.346;2024-02-26T04:04:33;46.77;;;25.57;;
20623;SDS011;10471;42.736;23.346;2024-02-26T04:06:59;41.87;;;26.03;;
20623;SDS011;10471;42.736;23.346;2024-02-26T04:09:25;41.73;;;27.07;;
20623;SDS011;10471;42.736;23.346;2024-02-26T04:11:50;44.93;;;26.63;;
20623;SDS011;10471;42.736;23.346;2024-02-26T04:14:16;41.27;;;26.27;;
20623;SDS011;10471;42.736;23.346;2024-02-26T04:16:41;72.00;;;41.80;;
20623;SDS011;10471;42.736;23.346;2024-02-26T04:19:06;80.33;;;45.50;;
20623;SDS011;10471;42.736;23.346;2024-02-26T04:21:32;83.30;;;43.27;;
20623;SDS011;10471;42.736;23.346;2024-02-26T04:23:58;61.60;;;33.20;;
20623;SDS011;10471;42.736;23.346;2024-02-26T04:26:27;50.83;;;28.97;;
20623;SDS011;10471;42.736;23.346;2024-02-26T04:28:53;43.37;;;26.57;;
20623;SDS011;10471;42.736;23.346;2024-02-26T04:31:19;44.80;;;26.60;;
20623;SDS011;10471;42.736;23.346;2024-02-26T04:33:44;45.27;;;26.97;;
20623;SDS011;10471;42.736;23.346;2024-02-26T04:36:13;52.13;;;29.03;;
20623;SDS011;10471;42.736;23.346;2024-02-26T04:38:40;42.33;;;26.63;;
20623;SDS011;10471;42.736;23.346;2024-02-26T04:41:06;44.77;;;28.20;;
20623;SDS011;10471;42.736;23.346;2024-02-26T04:43:31;42.70;;;26.27;;
20623;SDS011;10471;42.736;23.346;2024-02-26T04:45:57;60.07;;;34.07;;
20623;SDS011;10471;42.736;23.346;2024-02-26T04:48:22;55.90;;;32.53;;
20623;SDS011;10471;42.736;23.346;2024-02-26T04:50:48;50.80;;;31.03;;
20623;SDS011;10471;42.736;23.346;2024-02-26T04:53:13;62.60;;;34.23;;
20623;SDS011;10471;42.736;23.346;2024-02-26T04:55:38;67.27;;;35.60;;
20623;SDS011;10471;42.736;23.346;2024-02-26T04:58:04;61.40;;;35.33;;
20623;SDS011;10471;42.736;23.346;2024-02-26T05:00:29;75.40;;;38.67;;
20623;SDS011;10471;42.736;23.346;2024-02-26T05:02:55;72.83;;;38.23;;
20623;SDS011;10471;42.736;23.346;2024-02-26T05:05:20;91.50;;;47.47;;
20623;SDS011;10471;42.736;23.346;2024-02-26T05:07:45;81.87;;;48.63;;
20623;SDS011;10471;42.736;23.346;2024-02-26T05:10:11;82.87;;;49.80;;
20623;SDS011;10471;42.736;23.346;2024-02-26T05:12:36;86.43;;;44.63;;
20623;SDS011;10471;42.736;23.346;2024-02-26T05:15:02;50.57;;;33.93;;
20623;SDS011;10471;42.736;23.346;2024-02-26T05:17:28;72.77;;;41.00;;
20623;SDS011;10471;42.736;23.346;2024-02-26T05:19:53;66.37;;;37.63;;
20623;SDS011;10471;42.736;23.346;2024-02-26T05:22:19;58.97;;;36.10;;
20623;SDS011;10471;42.736;23.346;2024-02-26T05:24:44;74.13;;;38.87;;
20623;SDS011;10471;42.736;23.346;2024-02-26T05:27:09;101.53;;;44.87;;
20623;SDS011;10471;42.736;23.346;2024-02-26T05:29:35;81.63;;;38.63;;
20623;SDS011;10471;42.736;23.346;2024-02-26T05:32:01;67.60;;;35.93;;
20623;SDS011;10471;42.736;23.346;2024-02-26T05:34:26;56.43;;;34.30;;
20623;SDS011;10471;42.736;23.346;2024-02-26T05:36:52;56.23;;;34.87;;
20623;SDS011;10471;42.736;23.346;2024-02-26T05:39:17;59.70;;;36.13;;
20623;SDS011;10471;42.736;23.346;2024-02-26T05:41:42;68.17;;;38.47;;
20623;SDS011;10471;42.736;23.346;2024-02-26T05:44:08;69.73;;;38.43;;
20623;SDS011;10471;42.736;23.346;2024-02-26T05:46:35;65.93;;;38.77;;
20623;SDS011;10471;42.736;23.346;2024-02-26T05:49:00;65.70;;;37.43;;
20623;SDS011;10471;42.736;23.346;2024-02-26T05:51:26;59.90;;;35.90;;
20623;SDS011;10471;42.736;23.346;2024-02-26T05:53:51;62.50;;;36.80;;
20623;SDS011;10471;42.736;23.346;2024-02-26T05:56:20;54.93;;;37.20;;
20623;SDS011;10471;42.736;23.346;2024-02-26T05:58:46;58.73;;;36.53;;
20623;SDS011;10471;42.736;23.346;2024-02-26T06:01:12;57.40;;;36.67;;
20623;SDS011;10471;42.736;23.346;2024-02-26T06:03:37;61.03;;;37.50;;
20623;SDS011;10471;42.736;23.346;2024-02-26T06:06:03;65.90;;;38.87;;
20623;SDS011;10471;42.736;23.346;2024-02-26T06:08:29;97.53;;;51.40;;
20623;SDS011;10471;42.736;23.346;2024-02-26T06:10:54;86.37;;;48.00;;
20623;SDS011;10471;42.736;23.346;2024-02-26T06:13:19;90.03;;;49.67;;
20623;SDS011;10471;42.736;23.346;2024-02-26T06:15:45;80.90;;;44.97;;
20623;SDS011;10471;42.736;23.346;2024-02-26T06:18:11;78.63;;;42.90;;
20623;SDS011;10471;42.736;23.346;2024-02-26T06:20:36;68.80;;;41.33;;
20623;SDS011;10471;42.736;23.346;2024-02-26T06:23:02;65.67;;;40.97;;
20623;SDS011;10471;42.736;23.346;2024-02-26T06:25:27;64.93;;;39.83;;
20623;SDS011;10471;42.736;23.346;2024-02-26T06:27:52;61.23;;;38.73;;
20623;SDS011;10471;42.736;23.346;2024-02-26T06:30:18;60.77;;;38.10;;
20623;SDS011;10471;42.736;23.346;2024-02-26T06:32:43;60.47;;;38.70;;
20623;SDS011;10471;42.736;23.346;2024-02-26T06:35:08;57.13;;;37.73;;
20623;SDS011;10471;42.736;23.346;2024-02-26T06:37:36;69.83;;;43.37;;
20623;SDS011;10471;42.736;23.346;2024-02-26T06:40:01;79.30;;;51.53;;
20623;SDS011;10471;42.736;23.346;2024-02-26T06:42:31;98.00;;;60.80;;
20623;SDS011;10471;42.736;23.346;2024-02-26T06:44:57;139.37;;;89.93;;
20623;SDS011;10471;42.736;23.346;2024-02-26T06:47:23;87.80;;;55.23;;
20623;SDS011;10471;42.736;23.346;2024-02-26T06:49:48;69.03;;;46.63;;
20623;SDS011;10471;42.736;23.346;2024-02-26T06:52:13;73.03;;;47.27;;
20623;SDS011;10471;42.736;23.346;2024-02-26T06:54:39;57.20;;;37.50;;
20623;SDS011;10471;42.736;23.346;2024-02-26T06:57:04;56.90;;;35.67;;
20623;SDS011;10471;42.736;23.346;2024-02-26T06:59:29;49.50;;;32.90;;
20623;SDS011;10471;42.736;23.346;2024-02-26T07:01:55;53.67;;;35.57;;
20623;SDS011;10471;42.736;23.346;2024-02-26T07:04:20;51.00;;;32.97;;
20623;SDS011;10471;42.736;23.346;2024-02-26T07:06:46;54.73;;;34.07;;
20623;SDS011;10471;42.736;23.346;2024-02-26T07:09:12;52.13;;;33.70;;
20623;SDS011;10471;42.736;23.346;2024-02-26T07:11:38;50.60;;;31.83;;
20623;SDS011;10471;42.736;23.346;2024-02-26T07:14:07;48.47;;;30.30;;
20623;SDS011;10471;42.736;23.346;2024-02-26T07:16:33;45.30;;;28.23;;
20623;SDS011;10471;42.736;23.346;2024-02-26T07:18:58;44.73;;;27.90;;
20623;SDS011;10471;42.736;23.346;2024-02-26T07:21:24;43.50;;;26.87;;
20623;SDS011;10471;42.736;23.346;2024-02-26T07:23:49;43.43;;;27.93;;
20623;SDS011;10471;42.736;23.346;2024-02-26T07:26:14;41.40;;;27.00;;
20623;SDS011;10471;42.736;23.346;2024-02-26T07:28:42;45.07;;;27.83;;
20623;SDS011;10471;42.736;23.346;2024-02-26T07:31:07;44.23;;;28.40;;
20623;SDS011;10471;42.736;23.346;2024-02-26T07:33:33;44.93;;;27.17;;
20623;SDS011;10471;42.736;23.346;2024-02-26T07:35:58;43.30;;;28.17;;
20623;SDS011;10471;42.736;23.346;2024-02-26T07:38:24;63.83;;;42.87;;
20623;SDS011;10471;42.736;23.346;2024-02-26T07:40:49;42.10;;;29.00;;
20623;SDS011;10471;42.736;23.346;2024-02-26T07:43:15;36.63;;;26.00;;
20623;SDS011;10471;42.736;23.346;2024-02-26T07:45:40;40.40;;;27.20;;
20623;SDS011;10471;42.736;23.346;2024-02-26T07:48:06;35.63;;;24.37;;
20623;SDS011;10471;42.736;23.346;2024-02-26T07:50:31;44.07;;;28.73;;
20623;SDS011;10471;42.736;23.346;2024-02-26T07:52:57;96.73;;;54.47;;
20623;SDS011;10471;42.736;23.346;2024-02-26T07:55:23;157.53;;;86.03;;
20623;SDS011;10471;42.736;23.346;2024-02-26T07:57:49;90.10;;;49.67;;
20623;SDS011;10471;42.736;23.346;2024-02-26T08:00:14;46.60;;;30.70;;
20623;SDS011;10471;42.736;23.346;2024-02-26T08:02:41;52.83;;;32.63;;
20623;SDS011;10471;42.736;23.346;2024-02-26T08:05:08;51.67;;;33.10;;
20623;SDS011;10471;42.736;23.346;2024-02-26T08:07:33;45.10;;;28.77;;
20623;SDS011;10471;42.736;23.346;2024-02-26T08:09:58;42.93;;;29.37;;
20623;SDS011;10471;42.736;23.346;2024-02-26T08:12:24;41.30;;;29.60;;
20623;SDS011;10471;42.736;23.346;2024-02-26T08:14:49;37.67;;;26.90;;
20623;SDS011;10471;42.736;23.346;2024-02-26T08:17:14;38.03;;;26.20;;
20623;SDS011;10471;42.736;23.346;2024-02-26T08:19:40;41.77;;;27.37;;
20623;SDS011;10471;42.736;23.346;2024-02-26T08:22:05;33.87;;;24.63;;
20623;SDS011;10471;42.736;23.346;2024-02-26T08:24:30;37.00;;;26.33;;
20623;SDS011;10471;42.736;23.346;2024-02-26T08:26:56;41.63;;;26.43;;
20623;SDS011;10471;42.736;23.346;2024-02-26T08:29:21;37.73;;;26.07;;
20623;SDS011;10471;42.736;23.346;2024-02-26T08:31:47;33.70;;;24.63;;
20623;SDS011;10471;42.736;23.346;2024-02-26T08:34:13;33.27;;;23.97;;
20623;SDS011;10471;42.736;23.346;2024-02-26T08:36:38;33.80;;;24.10;;
20623;SDS011;10471;42.736;23.346;2024-02-26T08:39:04;29.93;;;21.73;;
20623;SDS011;10471;42.736;23.346;2024-02-26T08:41:29;30.30;;;21.43;;
20623;SDS011;10471;42.736;23.346;2024-02-26T08:43:54;36.83;;;22.93;;
20623;SDS011;10471;42.736;23.346;2024-02-26T08:46:20;30.80;;;22.73;;
20623;SDS011;10471;42.736;23.346;2024-02-26T08:48:46;29.83;;;22.40;;
20623;SDS011;10471;42.736;23.346;2024-02-26T08:51:11;32.00;;;22.80;;
20623;SDS011;10471;42.736;23.346;2024-02-26T08:53:38;32.23;;;22.33;;
20623;SDS011;10471;42.736;23.346;2024-02-26T08:56:04;29.43;;;21.63;;
20623;SDS011;10471;42.736;23.346;2024-02-26T08:58:29;34.23;;;23.83;;
20623;SDS011;10471;42.736;23.346;2024-02-26T09:00:55;36.53;;;24.33;;
20623;SDS011;10471;42.736;23.346;2024-02-26T09:03:20;37.73;;;24.20;;
20623;SDS011;10471;42.736;23.346;2024-02-26T09:05:46;35.50;;;24.60;;
20623;SDS011;10471;42.736;23.346;2024-02-26T09:08:12;36.97;;;23.90;;
20623;SDS011;10471;42.736;23.346;2024-02-26T09:10:38;27.23;;;21.27;;
20623;SDS011;10471;42.736;23.346;2024-02-26T09:13:03;36.40;;;29.80;;
20623;SDS011;10471;42.736;23.346;2024-02-26T09:15:29;29.03;;;22.63;;
20623;SDS011;10471;42.736;23.346;2024-02-26T09:17:55;20.17;;;15.97;;
20623;SDS011;10471;42.736;23.346;2024-02-26T09:20:20;20.07;;;14.17;;
20623;SDS011;10471;42.736;23.346;2024-02-26T09:22:47;36.40;;;24.33;;
20623;SDS011;10471;42.736;23.346;2024-02-26T09:25:13;35.33;;;23.90;;
20623;SDS011;10471;42.736;23.346;2024-02-26T09:27:41;28.67;;;18.80;;
20623;SDS011;10471;42.736;23.346;2024-02-26T09:30:08;28.43;;;18.20;;
20623;SDS011;10471;42.736;23.346;2024-02-26T09:32:34;24.53;;;16.90;;
20623;SDS011;10471;42.736;23.346;2024-02-26T09:35:00;20.87;;;14.47;;
20623;SDS011;10471;42.736;23.346;2024-02-26T09:37:25;20.63;;;13.37;;
20623;SDS011;10471;42.736;23.346;2024-02-26T09:39:50;18.97;;;10.87;;
20623;SDS011;10471;42.736;23.346;2024-02-26T09:42:16;13.53;;;9.90;;
20623;SDS011;10471;42.736;23.346;2024-02-26T09:44:43;20.80;;;10.90;;
20623;SDS011;10471;42.736;23.346;2024-02-26T09:47:10;9.97;;;6.80;;
20623;SDS011;10471;42.736;23.346;2024-02-26T09:49:38;10.93;;;7.67;;
20623;SDS011;10471;42.736;23.346;2024-02-26T09:52:06;9.73;;;6.80;;
20623;SDS011;10471;42.736;23.346;2024-02-26T09:54:34;10.13;;;6.80;;
20623;SDS011;10471;42.736;23.346;2024-02-26T09:57:01;11.77;;;6.93;;
20623;SDS011;10471;42.736;23.346;2024-02-26T09:59:29;9.67;;;7.23;;
20623;SDS011;10471;42.736;23.346;2024-02-26T10:01:58;9.90;;;7.03;;
20623;SDS011;10471;42.736;23.346;2024-02-26T10:04:25;11.40;;;6.73;;
20623;SDS011;10471;42.736;23.346;2024-02-26T10:06:51;8.57;;;5.97;;
20623;SDS011;10471;42.736;23.346;2024-02-26T10:09:17;10.13;;;6.83;;
20623;SDS011;10471;42.736;23.346;2024-02-26T10:11:43;12.17;;;8.00;;
20623;SDS011;10471;42.736;23.346;2024-02-26T10:14:09;9.93;;;6.67;;
20623;SDS011;10471;42.736;23.346;2024-02-26T10:16:34;6.97;;;6.23;;
20623;SDS011;10471;42.736;23.346;2024-02-26T10:19:00;10.00;;;6.27;;
20623;SDS011;10471;42.736;23.346;2024-02-26T10:21:26;10.07;;;6.40;;
20623;SDS011;10471;42.736;23.346;2024-02-26T10:23:51;10.13;;;6.77;;
20623;SDS011;10471;42.736;23.346;2024-02-26T10:26:17;9.03;;;6.60;;
20623;SDS011;10471;42.736;23.346;2024-02-26T10:28:43;8.03;;;6.53;;
20623;SDS011;10471;42.736;23.346;2024-02-26T10:31:09;10.03;;;6.30;;
20623;SDS011;10471;42.736;23.346;2024-02-26T10:33:38;9.67;;;6.20;;
20623;SDS011;10471;42.736;23.346;2024-02-26T10:36:04;8.97;;;6.40;;
20623;SDS011;10471;42.736;23.346;2024-02-26T10:38:31;10.83;;;6.47;;
20623;SDS011;10471;42.736;23.346;2024-02-26T10:40:57;9.43;;;6.07;;
20623;SDS011;10471;42.736;23.346;2024-02-26T10:43:24;8.90;;;5.83;;
20623;SDS011;10471;42.736;23.346;2024-02-26T10:45:50;8.83;;;6.23;;
20623;SDS011;10471;42.736;23.346;2024-02-26T10:48:15;8.70;;;6.80;;
20623;SDS011;10471;42.736;23.346;2024-02-26T10:50:42;8.47;;;6.60;;
20623;SDS011;10471;42.736;23.346;2024-02-26T10:53:12;9.17;;;6.07;;
20623;SDS011;10471;42.736;23.346;2024-02-26T10:55:41;9.30;;;6.03;;
20623;SDS011;10471;42.736;23.346;2024-02-26T10:58:11;7.23;;;6.27;;
20623;SDS011;10471;42.736;23.346;2024-02-26T11:00:39;11.03;;;6.77;;
20623;SDS011;10471;42.736;23.346;2024-02-26T11:03:04;14.43;;;10.67;;
20623;SDS011;10471;42.736;23.346;2024-02-26T11:05:33;10.20;;;6.83;;
20623;SDS011;10471;42.736;23.346;2024-02-26T11:08:00;10.07;;;6.73;;
20623;SDS011;10471;42.736;23.346;2024-02-26T11:10:27;10.53;;;6.63;;
20623;SDS011;10471;42.736;23.346;2024-02-26T11:12:55;9.00;;;6.50;;
20623;SDS011;10471;42.736;23.346;2024-02-26T11:15:24;8.10;;;6.33;;
20623;SDS011;10471;42.736;23.346;2024-02-26T11:17:50;8.03;;;5.90;;
20623;SDS011;10471;42.736;23.346;2024-02-26T11:20:17;8.47;;;5.73;;
20623;SDS011;10471;42.736;23.346;2024-02-26T11:22:44;7.90;;;5.03;;
20623;SDS011;10471;42.736;23.346;2024-02-26T11:25:09;6.70;;;4.90;;
20623;SDS011;10471;42.736;23.346;2024-02-26T11:27:46;7.33;;;5.30;;
20623;SDS011;10471;42.736;23.346;2024-02-26T11:30:15;8.73;;;6.40;;
20623;SDS011;10471;42.736;23.346;2024-02-26T11:32:44;10.30;;;5.53;;
20623;SDS011;10471;42.736;23.346;2024-02-26T11:35:11;6.63;;;4.63;;
20623;SDS011;10471;42.736;23.346;2024-02-26T11:37:40;9.00;;;5.60;;
20623;SDS011;10471;42.736;23.346;2024-02-26T11:40:10;6.63;;;4.83;;
20623;SDS011;10471;42.736;23.346;2024-02-26T11:42:42;5.10;;;4.53;;
20623;SDS011;10471;42.736;23.346;2024-02-26T11:45:37;8.67;;;5.33;;
20623;SDS011;10471;42.736;23.346;2024-02-26T11:48:03;7.93;;;5.23;;
20623;SDS011;10471;42.736;23.346;2024-02-26T11:50:35;8.53;;;4.93;;
20623;SDS011;10471;42.736;23.346;2024-02-26T11:58:45;7.80;;;5.10;;
20623;SDS011;10471;42.736;23.346;2024-02-26T12:04:13;6.07;;;4.73;;
20623;SDS011;10471;42.736;23.346;2024-02-26T12:06:42;9.10;;;5.20;;
20623;SDS011;10471;42.736;23.346;2024-02-26T12:09:09;9.27;;;4.80;;
20623;SDS011;10471;42.736;23.346;2024-02-26T12:11:38;8.17;;;5.17;;
20623;SDS011;10471;42.736;23.346;2024-02-26T12:14:05;6.20;;;4.80;;
20623;SDS011;10471;42.736;23.346;2024-02-26T12:16:38;8.17;;;4.93;;
20623;SDS011;10471;42.736;23.346;2024-02-26T12:19:05;7.20;;;5.33;;
20623;SDS011;10471;42.736;23.346;2024-02-26T12:21:35;7.10;;;4.90;;
20623;SDS011;10471;42.736;23.346;2024-02-26T12:24:11;7.43;;;5.10;;
20623;SDS011;10471;42.736;23.346;2024-02-26T12:26:43;7.47;;;4.73;;
20623;SDS011;10471;42.736;23.346;2024-02-26T12:29:09;7.13;;;4.80;;
20623;SDS011;10471;42.736;23.346;2024-02-26T12:31:36;14.87;;;8.80;;
20623;SDS011;10471;42.736;23.346;2024-02-26T12:34:02;13.63;;;8.53;;
20623;SDS011;10471;42.736;23.346;2024-02-26T12:36:29;14.73;;;6.83;;
20623;SDS011;10471;42.736;23.346;2024-02-26T12:38:55;11.87;;;7.87;;
20623;SDS011;10471;42.736;23.346;2024-02-26T12:41:21;10.10;;;6.93;;
20623;SDS011;10471;42.736;23.346;2024-02-26T12:43:47;9.77;;;5.30;;
20623;SDS011;10471;42.736;23.346;2024-02-26T12:46:12;7.70;;;4.70;;
20623;SDS011;10471;42.736;23.346;2024-02-26T12:48:39;8.03;;;4.90;;
20623;SDS011;10471;42.736;23.346;2024-02-26T12:51:07;10.03;;;4.83;;
20623;SDS011;10471;42.736;23.346;2024-02-26T12:53:35;8.50;;;4.93;;
20623;SDS011;10471;42.736;23.346;2024-02-26T12:56:00;10.10;;;4.87;;
20623;SDS011;10471;42.736;23.346;2024-02-26T12:58:28;11.17;;;5.23;;
20623;SDS011;10471;42.736;23.346;2024-02-26T13:00:56;9.90;;;5.07;;
20623;SDS011;10471;42.736;23.346;2024-02-26T13:03:22;7.47;;;4.60;;
20623;SDS011;10471;42.736;23.346;2024-02-26T13:05:48;9.20;;;4.33;;
20623;SDS011;10471;42.736;23.346;2024-02-26T13:08:18;7.93;;;4.50;;
20623;SDS011;10471;42.736;23.346;2024-02-26T13:10:47;7.00;;;4.73;;
20623;SDS011;10471;42.736;23.346;2024-02-26T13:13:17;6.50;;;4.20;;
20623;SDS011;10471;42.736;23.346;2024-02-26T13:15:43;6.73;;;4.60;;
20623;SDS011;10471;42.736;23.346;2024-02-26T13:18:10;9.37;;;4.73;;
20623;SDS011;10471;42.736;23.346;2024-02-26T13:20:36;8.73;;;5.17;;
20623;SDS011;10471;42.736;23.346;2024-02-26T13:25:27;6.00;;;4.43;;
20623;SDS011;10471;42.736;23.346;2024-02-26T13:28:03;8.90;;;4.87;;
20623;SDS011;10471;42.736;23.346;2024-02-26T13:30:52;6.90;;;4.40;;
20623;SDS011;10471;42.736;23.346;2024-02-26T13:33:21;7.83;;;4.23;;
20623;SDS011;10471;42.736;23.346;2024-02-26T13:35:47;7.43;;;4.30;;
20623;SDS011;10471;42.736;23.346;2024-02-26T13:38:12;8.53;;;4.40;;
20623;SDS011;10471;42.736;23.346;2024-02-26T13:40:38;6.70;;;4.07;;
20623;SDS011;10471;42.736;23.346;2024-02-26T13:43:04;4.73;;;3.57;;
20623;SDS011;10471;42.736;23.346;2024-02-26T13:45:30;8.50;;;4.27;;
20623;SDS011;10471;42.736;23.346;2024-02-26T13:47:59;7.37;;;4.13;;
20623;SDS011;10471;42.736;23.346;2024-02-26T13:50:28;4.63;;;3.97;;
20623;SDS011;10471;42.736;23.346;2024-02-26T13:52:53;7.23;;;4.10;;
20623;SDS011;10471;42.736;23.346;2024-02-26T13:55:20;7.37;;;4.50;;
20623;SDS011;10471;42.736;23.346;2024-02-26T13:57:47;6.90;;;4.57;;
20623;SDS011;10471;42.736;23.346;2024-02-26T14:00:13;6.63;;;4.00;;
20623;SDS011;10471;42.736;23.346;2024-02-26T14:02:39;7.93;;;3.97;;
20623;SDS011;10471;42.736;23.346;2024-02-26T14:05:04;5.67;;;4.10;;
20623;SDS011;10471;42.736;23.346;2024-02-26T14:07:30;6.20;;;3.60;;
20623;SDS011;10471;42.736;23.346;2024-02-26T14:09:57;5.37;;;3.80;;
20623;SDS011;10471;42.736;23.346;2024-02-26T14:12:23;4.93;;;3.70;;
20623;SDS011;10471;42.736;23.346;2024-02-26T14:14:48;7.03;;;3.60;;
20623;SDS011;10471;42.736;23.346;2024-02-26T14:17:14;5.27;;;3.57;;
20623;SDS011;10471;42.736;23.346;2024-02-26T14:19:40;7.30;;;4.10;;
20623;SDS011;10471;42.736;23.346;2024-02-26T14:22:10;8.73;;;4.80;;